Time;durP1;ratioP1;P1;durP2;ratioP2;P2;SDS_P1;SDS_P2;PMS_P1;PMS_P2;Temp;Humidity;BMP_temperature;BMP_pressure;BME280_temperature;BME280_humidity;BME280_pressure;Samples;Min_cycle;Max_cycle;Signal;HPM_P1;HPM_P2
2024/01/07 00:00:10;;;;;;;14.67;12.10;;;5.10;99.90;;;;;;4976934;28;20208;-86
2024/01/07 00:02:36;;;;;;;15.37;12.67;;;5.10;99.90;;;;;;4976703;28;20272;-86
2024/01/07 00:05:02;;;;;;;17.40;12.87;;;5.10;99.90;;;;;;4976434;28;20333;-85
2024/01/07 00:07:45;;;;;;;15.60;13.00;;;5.00;99.90;;;;;;4977614;28;20315;-86
2024/01/07 00:10:10;;;;;;;15.90;12.97;;;5.00;99.90;;;;;;4980639;28;20187;-86
2024/01/07 00:12:36;;;;;;;14.17;12.50;;;5.00;99.90;;;;;;4980378;28;20259;-85
2024/01/07 00:15:06;;;;;;;17.57;13.63;;;5.00;99.90;;;;;;4980076;28;20180;-84
2024/01/07 00:17:31;;;;;;;18.60;14.33;;;5.00;99.90;;;;;;4980006;28;20695;-85
2024/01/07 00:19:57;;;;;;;19.33;13.33;;;5.00;99.90;;;;;;4980048;28;20204;-85
2024/01/07 00:22:26;;;;;;;14.67;12.70;;;5.00;99.90;;;;;;4980352;28;20176;-85
2024/01/07 00:24:51;;;;;;;17.17;13.30;;;5.00;99.90;;;;;;4980769;28;20173;-84
2024/01/07 00:27:17;;;;;;;15.97;13.53;;;5.00;99.90;;;;;;4979923;28;20346;-87
2024/01/07 00:29:43;;;;;;;15.80;14.10;;;5.00;99.90;;;;;;4980208;28;20666;-86
2024/01/07 00:32:10;;;;;;;16.10;13.63;;;5.00;99.90;;;;;;4980217;28;20274;-87
2024/01/07 00:34:36;;;;;;;18.03;14.00;;;5.00;99.90;;;;;;4979990;28;20699;-86
2024/01/07 00:37:02;;;;;;;15.53;13.17;;;4.90;99.90;;;;;;4979847;28;20246;-85
2024/01/07 00:39:28;;;;;;;13.90;12.40;;;4.90;99.90;;;;;;4980324;28;20299;-85
2024/01/07 00:41:54;;;;;;;14.10;12.60;;;4.90;99.90;;;;;;4979656;28;20183;-87
2024/01/07 00:44:26;;;;;;;16.43;13.53;;;4.80;99.90;;;;;;4979916;28;20180;-85
2024/01/07 00:46:53;;;;;;;13.10;11.70;;;4.90;99.90;;;;;;4979604;28;20259;-86
2024/01/07 00:49:19;;;;;;;14.43;12.23;;;4.80;99.90;;;;;;4980003;28;20190;-86
2024/01/07 00:51:45;;;;;;;13.47;12.07;;;4.80;99.90;;;;;;4979217;28;20183;-87
2024/01/07 00:54:16;;;;;;;13.20;11.27;;;4.80;99.90;;;;;;4979447;28;20276;-87
2024/01/07 00:56:42;;;;;;;12.10;10.90;;;4.80;99.90;;;;;;4979267;28;20196;-87
2024/01/07 00:59:22;;;;;;;12.03;10.33;;;4.80;99.90;;;;;;5011585;28;20204;-87
2024/01/07 01:01:47;;;;;;;15.03;10.80;;;4.80;99.90;;;;;;4978889;28;20200;-87
2024/01/07 01:04:13;;;;;;;13.27;10.27;;;4.70;99.90;;;;;;4979354;28;20183;-87
2024/01/07 01:06:39;;;;;;;13.20;11.40;;;4.70;99.90;;;;;;4980240;28;20250;-87
2024/01/07 01:09:11;;;;;;;13.07;10.70;;;4.70;99.90;;;;;;4978818;28;20226;-87
2024/01/07 01:12:05;;;;;;;15.67;11.40;;;4.70;99.90;;;;;;4979078;28;20180;-87
2024/01/07 01:14:31;;;;;;;11.70;10.50;;;4.70;99.90;;;;;;4978872;28;20180;-87
2024/01/07 01:16:57;;;;;;;12.40;11.13;;;4.70;99.90;;;;;;4978910;28;20548;-87
2024/01/07 01:19:23;;;;;;;13.70;11.50;;;4.70;99.90;;;;;;4978813;28;20324;-87
2024/01/07 01:21:49;;;;;;;12.27;10.40;;;4.70;99.90;;;;;;4978762;28;20179;-87
2024/01/07 01:24:15;;;;;;;11.83;10.33;;;4.60;99.90;;;;;;4978738;28;20173;-88
2024/01/07 01:26:51;;;;;;;11.63;10.10;;;4.70;99.90;;;;;;4978748;28;20200;-87
2024/01/07 01:29:16;;;;;;;11.53;10.17;;;4.60;99.90;;;;;;4979110;28;20247;-87
2024/01/07 01:31:42;;;;;;;12.30;10.00;;;4.60;99.90;;;;;;4979041;28;20207;-87
2024/01/07 01:34:08;;;;;;;15.13;10.50;;;4.60;99.90;;;;;;4978789;28;20180;-87
2024/01/07 01:36:34;;;;;;;11.80;9.83;;;4.60;99.90;;;;;;4978151;28;20184;-87
2024/01/07 01:38:59;;;;;;;12.47;10.07;;;4.50;99.90;;;;;;4978573;28;20247;-85
2024/01/07 01:41:25;;;;;;;11.33;9.60;;;4.50;99.90;;;;;;4978646;28;20181;-84
2024/01/07 01:43:51;;;;;;;11.40;9.90;;;4.50;99.90;;;;;;4978384;28;20255;-87
2024/01/07 01:46:17;;;;;;;11.30;9.87;;;4.50;99.90;;;;;;4977943;28;20183;-87
2024/01/07 01:48:43;;;;;;;11.90;9.77;;;4.50;99.90;;;;;;4978297;28;20192;-87
2024/01/07 01:51:09;;;;;;;12.50;10.13;;;4.50;99.90;;;;;;4978262;28;20187;-87
2024/01/07 01:53:54;;;;;;;12.57;10.27;;;4.50;99.90;;;;;;4978361;28;20183;-85
2024/01/07 01:56:20;;;;;;;12.90;10.00;;;4.50;99.90;;;;;;4978375;28;20210;-85
2024/01/07 01:58:47;;;;;;;11.43;9.80;;;4.50;99.90;;;;;;4977631;28;20250;-87
2024/01/07 02:27:02;;;;;;;12.87;10.63;;;4.20;99.90;;;;;;5011581;28;20223;-75
2024/01/07 02:29:28;;;;;;;13.63;11.03;;;4.20;99.90;;;;;;5014305;28;20175;-75
2024/01/07 02:31:58;;;;;;;12.60;10.40;;;4.20;99.90;;;;;;4996960;28;20202;-75
2024/01/07 02:34:23;;;;;;;13.77;11.03;;;4.20;99.90;;;;;;4996863;28;20183;-75
2024/01/07 02:36:49;;;;;;;13.00;10.87;;;4.10;99.90;;;;;;4996933;28;20206;-75
2024/01/07 02:39:14;;;;;;;13.30;10.43;;;4.10;99.90;;;;;;4996625;28;20227;-75
2024/01/07 02:41:40;;;;;;;12.37;10.23;;;4.20;99.90;;;;;;5014233;28;20175;-75
2024/01/07 02:44:05;;;;;;;13.07;10.90;;;4.10;99.90;;;;;;4997723;28;20175;-75
2024/01/07 02:46:31;;;;;;;13.60;10.73;;;4.10;99.90;;;;;;4996163;28;20199;-76
2024/01/07 02:48:57;;;;;;;13.77;10.37;;;4.10;99.90;;;;;;4996421;28;20267;-75
2024/01/07 02:51:22;;;;;;;13.77;11.07;;;4.00;99.90;;;;;;4996656;28;20180;-75
2024/01/07 02:53:48;;;;;;;12.83;10.63;;;4.00;99.90;;;;;;5015987;28;20190;-75
2024/01/07 02:56:13;;;;;;;15.10;11.43;;;4.00;99.90;;;;;;5016222;28;20214;-75
2024/01/07 02:58:39;;;;;;;14.70;11.03;;;3.90;99.90;;;;;;5033568;28;20179;-75
2024/01/07 03:01:09;;;;;;;12.97;10.33;;;3.90;99.90;;;;;;5032282;28;20210;-75
2024/01/07 03:03:35;;;;;;;13.13;10.37;;;3.90;99.90;;;;;;5016613;28;20177;-77
2024/01/07 03:06:00;;;;;;;17.27;10.93;;;3.90;99.90;;;;;;5017453;28;20268;-77
2024/01/07 03:08:26;;;;;;;15.63;10.73;;;3.80;99.90;;;;;;5017222;28;20547;-77
2024/01/07 03:10:56;;;;;;;13.47;10.70;;;3.80;99.90;;;;;;5016934;28;20198;-77
2024/01/07 03:13:21;;;;;;;14.37;10.30;;;3.80;99.90;;;;;;5017420;28;20182;-77
2024/01/07 03:15:52;;;;;;;13.87;10.77;;;3.80;99.90;;;;;;5017155;28;20202;-77
2024/01/07 03:18:17;;;;;;;12.87;9.90;;;3.80;99.90;;;;;;5017734;28;20178;-77
2024/01/07 03:20:43;;;;;;;13.03;10.03;;;3.80;99.90;;;;;;5035051;28;20285;-77
2024/01/07 03:23:08;;;;;;;13.37;10.03;;;3.70;99.90;;;;;;5017221;28;20232;-77
2024/01/07 03:25:34;;;;;;;11.93;9.80;;;3.70;99.90;;;;;;5032695;28;20198;-75
2024/01/07 03:27:59;;;;;;;10.87;8.67;;;3.70;99.90;;;;;;5015699;28;20265;-75
2024/01/07 03:30:25;;;;;;;9.53;8.47;;;3.70;99.90;;;;;;5033275;28;20191;-75
2024/01/07 03:32:50;;;;;;;14.47;9.60;;;3.70;99.90;;;;;;5033611;28;20175;-75
2024/01/07 03:35:16;;;;;;;13.93;10.43;;;3.70;99.90;;;;;;5015571;28;20183;-75
2024/01/07 03:37:41;;;;;;;14.70;10.33;;;3.60;99.90;;;;;;5015525;28;20277;-75
2024/01/07 03:40:13;;;;;;;13.47;10.23;;;3.70;99.90;;;;;;5015571;28;20220;-75
2024/01/07 03:42:39;;;;;;;11.53;9.43;;;3.70;99.90;;;;;;5018528;28;20183;-74
2024/01/07 03:45:05;;;;;;;11.47;9.20;;;3.70;99.90;;;;;;5022443;28;20183;-76
2024/01/07 03:47:31;;;;;;;12.03;9.23;;;3.60;99.90;;;;;;5023096;28;20247;-76
2024/01/07 03:49:57;;;;;;;12.30;8.87;;;3.60;99.90;;;;;;5023380;28;20182;-76
2024/01/07 03:52:22;;;;;;;11.10;8.57;;;3.50;99.90;;;;;;5041058;28;20186;-76
2024/01/07 03:54:48;;;;;;;10.77;8.63;;;3.60;99.90;;;;;;5023073;28;20183;-76
2024/01/07 03:57:37;;;;;;;11.20;8.47;;;3.50;99.90;;;;;;5037554;28;20199;-75
2024/01/07 04:00:04;;;;;;;11.73;8.77;;;3.50;99.90;;;;;;5019232;28;20198;-75
2024/01/07 04:02:29;;;;;;;10.87;8.43;;;3.40;99.90;;;;;;5020542;28;20270;-77
2024/01/07 04:04:55;;;;;;;10.33;8.03;;;3.40;99.90;;;;;;5020835;28;20213;-77
2024/01/07 04:07:20;;;;;;;11.97;8.60;;;3.50;99.90;;;;;;5021162;28;20226;-77
2024/01/07 04:09:46;;;;;;;9.93;7.67;;;3.40;99.90;;;;;;5020885;28;20189;-77
2024/01/07 04:12:11;;;;;;;12.60;8.10;;;3.40;99.90;;;;;;5021311;28;20206;-77
2024/01/07 04:14:37;;;;;;;9.90;7.73;;;3.30;99.90;;;;;;5020346;28;20175;-78
2024/01/07 04:17:03;;;;;;;9.67;8.03;;;3.30;99.90;;;;;;5020498;28;20199;-77
2024/01/07 04:19:28;;;;;;;9.40;8.10;;;3.20;99.90;;;;;;5019565;28;20301;-75
2024/01/07 04:21:54;;;;;;;10.47;8.60;;;3.20;99.90;;;;;;5018848;28;20179;-75
2024/01/07 04:24:19;;;;;;;9.03;7.93;;;3.20;99.90;;;;;;5018888;28;20577;-75
2024/01/07 04:26:45;;;;;;;9.70;7.80;;;3.20;99.90;;;;;;5036671;28;20228;-75
2024/01/07 04:29:10;;;;;;;10.33;8.53;;;3.20;99.90;;;;;;5018660;28;20175;-74
2024/01/07 04:31:36;;;;;;;9.80;8.00;;;3.20;99.90;;;;;;5036673;28;20555;-75
2024/01/07 04:34:02;;;;;;;11.03;8.87;;;3.10;99.90;;;;;;5018505;28;20661;-74
2024/01/07 04:36:29;;;;;;;10.30;7.87;;;3.10;99.90;;;;;;5018813;28;20285;-75
2024/01/07 04:38:54;;;;;;;9.50;7.57;;;3.10;99.90;;;;;;5018359;28;20198;-74
2024/01/07 04:41:20;;;;;;;9.77;7.80;;;3.10;99.90;;;;;;5018499;28;20175;-74
2024/01/07 04:43:45;;;;;;;8.63;7.30;;;3.00;99.90;;;;;;5018438;28;20202;-74
2024/01/07 04:46:11;;;;;;;8.87;7.47;;;2.90;99.90;;;;;;5018356;28;20669;-74
2024/01/07 04:48:37;;;;;;;8.67;7.20;;;2.80;99.90;;;;;;5018304;28;20179;-75
2024/01/07 04:51:02;;;;;;;8.50;6.80;;;2.70;99.90;;;;;;5018276;28;20175;-74
2024/01/07 04:53:28;;;;;;;7.57;6.43;;;2.60;99.90;;;;;;5017332;28;20226;-74
2024/01/07 04:55:53;;;;;;;7.63;6.80;;;2.50;99.90;;;;;;5018123;28;20202;-75
2024/01/07 04:58:19;;;;;;;7.60;6.47;;;2.40;99.90;;;;;;5018133;28;20265;-74
2024/01/07 05:00:44;;;;;;;8.07;5.97;;;2.40;99.90;;;;;;5018375;28;20265;-74
2024/01/07 05:03:10;;;;;;;7.37;6.30;;;2.30;99.90;;;;;;5017999;28;20262;-74
2024/01/07 05:05:42;;;;;;;8.50;6.23;;;2.30;99.90;;;;;;5018264;28;20217;-77
2024/01/07 05:08:08;;;;;;;6.17;5.40;;;2.30;99.90;;;;;;5018765;28;20186;-78
2024/01/07 05:10:33;;;;;;;5.80;4.83;;;2.30;99.90;;;;;;5018288;28;20552;-77
2024/01/07 05:13:04;;;;;;;6.00;5.40;;;2.30;99.90;;;;;;5018159;28;20214;-77
2024/01/07 05:15:30;;;;;;;6.17;5.40;;;2.20;99.90;;;;;;5018690;28;20179;-77
2024/01/07 05:17:56;;;;;;;7.20;5.80;;;2.30;99.90;;;;;;5017953;28;20206;-78
2024/01/07 05:20:21;;;;;;;6.80;5.80;;;2.20;99.90;;;;;;5035421;28;20218;-77
2024/01/07 05:22:49;;;;;;;6.60;5.90;;;2.20;99.90;;;;;;5019225;28;20637;-77
2024/01/07 05:25:15;;;;;;;6.33;5.53;;;2.10;99.90;;;;;;5022781;28;20205;-76
2024/01/07 05:27:40;;;;;;;6.57;5.73;;;2.10;99.90;;;;;;5040205;28;20195;-76
2024/01/07 05:30:07;;;;;;;6.20;5.60;;;2.10;99.90;;;;;;5022678;28;20175;-76
2024/01/07 05:32:33;;;;;;;6.17;5.57;;;2.10;99.90;;;;;;5040342;28;20201;-76
2024/01/07 05:34:59;;;;;;;7.00;6.30;;;2.10;99.90;;;;;;5021710;28;20183;-76
2024/01/07 05:37:24;;;;;;;7.43;6.63;;;2.00;99.90;;;;;;5020556;28;20206;-74
2024/01/07 05:39:50;;;;;;;6.80;6.10;;;2.10;99.90;;;;;;5017372;28;20613;-74
2024/01/07 05:42:16;;;;;;;7.23;6.30;;;2.00;99.90;;;;;;5017748;28;20638;-74
2024/01/07 05:44:42;;;;;;;9.13;6.57;;;2.00;99.90;;;;;;5017315;28;20182;-74
2024/01/07 05:47:07;;;;;;;9.17;7.47;;;2.00;99.90;;;;;;5028885;28;20195;-74
2024/01/07 05:49:33;;;;;;;8.60;7.33;;;2.10;99.90;;;;;;4997913;28;20180;-75
2024/01/07 05:51:58;;;;;;;7.90;7.10;;;2.10;99.90;;;;;;4997952;28;20179;-75
2024/01/07 05:54:24;;;;;;;7.27;6.33;;;2.10;99.90;;;;;;4997564;28;20184;-74
2024/01/07 05:56:49;;;;;;;6.20;5.60;;;2.20;99.90;;;;;;4997407;28;20258;-75
2024/01/07 05:59:15;;;;;;;6.50;5.90;;;2.20;99.90;;;;;;5014885;28;20207;-74
2024/01/07 06:01:40;;;;;;;6.60;5.93;;;2.20;99.90;;;;;;4997683;28;20661;-74
2024/01/07 06:04:06;;;;;;;8.00;6.60;;;2.20;99.90;;;;;;4997658;28;20527;-74
2024/01/07 06:06:33;;;;;;;6.80;6.03;;;2.30;99.90;;;;;;4997106;28;20673;-74
2024/01/07 06:08:59;;;;;;;7.53;6.67;;;2.30;99.90;;;;;;4997942;28;20175;-74
2024/01/07 06:11:24;;;;;;;6.87;6.17;;;2.30;99.90;;;;;;5014713;28;20230;-74
2024/01/07 06:13:50;;;;;;;7.07;6.37;;;2.20;99.90;;;;;;4997118;28;20211;-74
2024/01/07 06:16:15;;;;;;;7.10;5.90;;;2.20;99.90;;;;;;5014497;28;20195;-75
2024/01/07 06:18:41;;;;;;;6.40;5.80;;;2.20;99.90;;;;;;4999852;28;20207;-75
2024/01/07 06:21:07;;;;;;;6.90;6.20;;;2.20;99.90;;;;;;5007252;28;20186;-75
2024/01/07 06:23:33;;;;;;;6.00;5.40;;;2.20;99.90;;;;;;5008203;28;20176;-76
2024/01/07 06:25:59;;;;;;;6.20;5.70;;;2.20;99.90;;;;;;5025193;28;20215;-76
2024/01/07 06:28:24;;;;;;;7.83;5.83;;;2.20;99.90;;;;;;5007195;28;20278;-76
2024/01/07 06:30:50;;;;;;;6.40;5.80;;;2.10;99.90;;;;;;5020869;28;20203;-76
2024/01/07 06:33:15;;;;;;;6.70;6.00;;;2.20;99.90;;;;;;5003246;28;20187;-76
2024/01/07 06:35:41;;;;;;;6.57;5.97;;;2.20;99.90;;;;;;5003336;28;20195;-76
2024/01/07 06:38:06;;;;;;;6.60;5.90;;;2.30;99.90;;;;;;5003704;28;20197;-76
2024/01/07 06:40:32;;;;;;;7.07;6.37;;;2.30;99.90;;;;;;5002910;28;20704;-76
2024/01/07 06:42:58;;;;;;;6.90;6.30;;;2.30;99.90;;;;;;5003006;28;20175;-76
2024/01/07 06:45:23;;;;;;;7.13;6.43;;;2.30;99.90;;;;;;5003360;28;20242;-76
2024/01/07 06:47:50;;;;;;;7.13;6.43;;;2.30;99.90;;;;;;5020130;28;20219;-76
2024/01/07 06:50:16;;;;;;;7.07;6.37;;;2.30;99.90;;;;;;5002217;28;20175;-76
2024/01/07 06:52:42;;;;;;;7.03;6.33;;;2.30;99.90;;;;;;5002585;28;20175;-76
2024/01/07 06:55:08;;;;;;;7.50;6.67;;;2.20;99.90;;;;;;5002115;28;20673;-75
2024/01/07 06:57:33;;;;;;;8.07;6.70;;;2.30;99.90;;;;;;5019516;28;20217;-76
2024/01/07 06:59:59;;;;;;;8.30;6.83;;;2.20;99.90;;;;;;5002413;28;20199;-76
2024/01/07 07:02:24;;;;;;;7.57;6.77;;;2.20;99.90;;;;;;5002401;28;20176;-76
2024/01/07 07:04:51;;;;;;;7.83;6.07;;;2.20;99.90;;;;;;5001422;28;20270;-76
2024/01/07 07:07:17;;;;;;;7.70;6.90;;;2.20;99.90;;;;;;5002090;28;20199;-76
2024/01/07 07:09:42;;;;;;;7.57;6.50;;;2.20;99.90;;;;;;5002019;28;20187;-76
2024/01/07 07:12:08;;;;;;;8.30;7.23;;;2.10;99.90;;;;;;5002022;28;20187;-76
2024/01/07 07:14:34;;;;;;;8.60;7.70;;;2.10;99.90;;;;;;5002734;28;20222;-75
2024/01/07 07:17:00;;;;;;;8.00;7.13;;;2.10;99.90;;;;;;5001484;28;20199;-75
2024/01/07 07:19:25;;;;;;;7.40;6.30;;;2.10;99.90;;;;;;5001187;28;20207;-76
2024/01/07 07:21:51;;;;;;;7.97;7.17;;;2.10;99.90;;;;;;5001503;28;20187;-76
2024/01/07 07:24:16;;;;;;;8.00;6.77;;;2.10;99.90;;;;;;5000626;28;20551;-74
2024/01/07 07:26:42;;;;;;;8.47;7.50;;;2.00;99.90;;;;;;5013814;28;20217;-77
2024/01/07 07:29:11;;;;;;;8.33;7.33;;;1.90;99.90;;;;;;5014165;28;20672;-77
2024/01/07 07:31:37;;;;;;;8.30;7.50;;;1.90;99.90;;;;;;5014956;28;20180;-78
2024/01/07 07:34:05;;;;;;;9.30;7.80;;;2.00;99.90;;;;;;5014068;28;20259;-77
2024/01/07 07:36:31;;;;;;;8.37;7.30;;;2.00;99.90;;;;;;4996138;28;20230;-77
2024/01/07 07:38:57;;;;;;;9.30;7.53;;;2.00;99.90;;;;;;4996406;28;20215;-76
2024/01/07 07:41:22;;;;;;;8.40;6.80;;;1.90;99.90;;;;;;5014167;28;20183;-77
2024/01/07 07:43:48;;;;;;;7.93;6.60;;;1.90;99.90;;;;;;4996768;28;20310;-76
2024/01/07 07:46:15;;;;;;;7.87;6.77;;;1.80;99.90;;;;;;4996285;28;20200;-74
2024/01/07 07:48:41;;;;;;;8.23;6.77;;;1.80;99.90;;;;;;4995953;28;20203;-74
2024/01/07 07:51:06;;;;;;;8.43;6.97;;;1.80;99.90;;;;;;4996152;28;20697;-74
2024/01/07 07:53:32;;;;;;;6.93;6.23;;;1.80;99.90;;;;;;4995843;28;20275;-74
2024/01/07 07:55:57;;;;;;;7.43;6.73;;;1.80;99.90;;;;;;4996038;28;20248;-74
2024/01/07 07:58:31;;;;;;;7.80;6.90;;;1.80;99.90;;;;;;4995761;28;20233;-74
2024/01/07 08:01:00;;;;;;;8.53;7.47;;;1.80;99.90;;;;;;4995662;28;20199;-74
2024/01/07 08:03:27;;;;;;;8.37;7.33;;;1.80;99.90;;;;;;4996510;28;20191;-77
2024/01/07 08:05:52;;;;;;;9.17;7.37;;;1.80;99.90;;;;;;4996650;28;20291;-77
2024/01/07 08:08:20;;;;;;;8.13;7.27;;;1.80;99.90;;;;;;4996336;28;20218;-75
2024/01/07 08:10:45;;;;;;;9.77;7.90;;;1.90;99.90;;;;;;5013571;28;20183;-74
2024/01/07 08:13:11;;;;;;;10.33;8.37;;;1.80;99.90;;;;;;4996493;28;20541;-74
2024/01/07 08:15:37;;;;;;;9.13;8.00;;;1.80;99.90;;;;;;4995591;28;20646;-75
2024/01/07 08:18:03;;;;;;;10.93;8.53;;;1.80;99.90;;;;;;5013214;28;20603;-75
2024/01/07 08:20:29;;;;;;;9.17;7.70;;;1.80;99.90;;;;;;5013123;28;20239;-74
2024/01/07 08:22:54;;;;;;;8.93;8.00;;;1.80;99.90;;;;;;4996613;28;20273;-82
2024/01/07 08:25:20;;;;;;;9.53;7.47;;;1.90;99.90;;;;;;4995539;28;20195;-75
2024/01/07 08:27:46;;;;;;;9.47;7.33;;;1.90;99.90;;;;;;4995333;28;20258;-74
2024/01/07 08:30:13;;;;;;;8.97;7.40;;;1.90;99.90;;;;;;4999421;28;20187;-75
2024/01/07 08:32:39;;;;;;;8.53;7.63;;;1.90;99.90;;;;;;4999020;28;20187;-74
2024/01/07 08:35:05;;;;;;;8.00;7.00;;;1.90;99.90;;;;;;5016258;28;20206;-76
2024/01/07 08:37:30;;;;;;;9.90;7.50;;;2.00;99.90;;;;;;4999425;28;20203;-76
2024/01/07 08:39:56;;;;;;;7.97;7.13;;;2.00;99.90;;;;;;5003688;28;20207;-76
2024/01/07 08:42:22;;;;;;;9.00;7.17;;;2.00;99.90;;;;;;5021654;28;20175;-76
2024/01/07 08:44:47;;;;;;;9.77;7.90;;;2.00;99.90;;;;;;5003680;28;20179;-77
2024/01/07 08:47:13;;;;;;;10.27;8.73;;;2.00;99.90;;;;;;5002293;28;20183;-76
2024/01/07 08:49:39;;;;;;;12.10;8.87;;;2.00;99.90;;;;;;5003673;28;20180;-76
2024/01/07 08:52:05;;;;;;;11.00;8.50;;;1.90;99.90;;;;;;5003095;28;20195;-76
2024/01/07 08:54:30;;;;;;;9.87;8.27;;;1.90;99.90;;;;;;5003518;28;20279;-76
2024/01/07 08:56:56;;;;;;;10.80;9.07;;;1.80;99.90;;;;;;5001895;28;20227;-76
2024/01/07 08:59:22;;;;;;;10.57;8.30;;;1.80;99.90;;;;;;5019985;28;20223;-76
2024/01/07 09:01:50;;;;;;;10.07;8.40;;;1.70;99.90;;;;;;5019841;28;20230;-76
2024/01/07 09:04:17;;;;;;;11.13;8.47;;;1.80;99.90;;;;;;5002182;28;20183;-76
2024/01/07 09:06:43;;;;;;;10.03;7.77;;;1.70;99.90;;;;;;5002352;28;20229;-75
2024/01/07 09:09:09;;;;;;;10.03;8.10;;;1.70;99.90;;;;;;4998226;28;20187;-75
2024/01/07 09:11:36;;;;;;;10.03;8.30;;;1.70;99.90;;;;;;4998463;28;20238;-75
2024/01/07 09:14:03;;;;;;;8.87;7.97;;;1.70;99.90;;;;;;4998731;28;20211;-75
2024/01/07 09:16:29;;;;;;;8.43;7.60;;;1.70;99.90;;;;;;4998106;28;20207;-75
2024/01/07 09:18:54;;;;;;;7.93;7.13;;;1.70;99.90;;;;;;5015427;28;20520;-75
2024/01/07 09:21:20;;;;;;;8.17;7.13;;;1.70;99.90;;;;;;4998015;28;20182;-75
2024/01/07 09:23:45;;;;;;;8.53;7.20;;;1.70;99.90;;;;;;4998072;28;20182;-75
2024/01/07 09:26:11;;;;;;;8.67;7.67;;;1.80;99.90;;;;;;5015304;28;20249;-74
2024/01/07 09:28:36;;;;;;;8.17;7.17;;;1.90;99.90;;;;;;4998169;28;20179;-75
2024/01/07 09:31:02;;;;;;;8.73;6.87;;;1.80;99.90;;;;;;4997835;28;20187;-75
2024/01/07 09:33:28;;;;;;;8.73;7.07;;;1.80;99.90;;;;;;4997736;28;20184;-75
2024/01/07 09:35:56;;;;;;;7.23;6.50;;;1.80;99.90;;;;;;4997837;28;20290;-74
2024/01/07 09:38:22;;;;;;;8.03;6.47;;;1.90;99.90;;;;;;4997745;28;20198;-75
2024/01/07 09:40:49;;;;;;;8.47;6.77;;;1.80;99.90;;;;;;4997525;28;20298;-75
2024/01/07 09:43:14;;;;;;;7.87;6.93;;;1.80;99.90;;;;;;4997479;28;20194;-75
2024/01/07 09:45:45;;;;;;;7.77;6.80;;;1.80;99.90;;;;;;4997322;28;20180;-75
2024/01/07 09:48:11;;;;;;;8.87;7.17;;;1.90;99.90;;;;;;4997585;28;20222;-75
2024/01/07 09:50:36;;;;;;;7.43;6.63;;;1.90;99.90;;;;;;4997812;28;20184;-75
2024/01/07 09:53:02;;;;;;;7.03;6.13;;;1.80;99.90;;;;;;4997393;28;20222;-74
2024/01/07 09:55:34;;;;;;;7.40;6.40;;;1.80;99.90;;;;;;4997186;28;20270;-74
2024/01/07 09:57:59;;;;;;;7.17;6.23;;;1.80;99.90;;;;;;4997480;28;20202;-74
2024/01/07 10:00:27;;;;;;;10.80;6.80;;;1.80;99.90;;;;;;5014832;28;20211;-74
2024/01/07 10:02:53;;;;;;;8.97;6.83;;;1.80;99.90;;;;;;5014710;28;20176;-74
2024/01/07 10:05:19;;;;;;;6.93;6.13;;;1.80;99.90;;;;;;4997216;28;20279;-73
2024/01/07 10:07:45;;;;;;;7.23;6.10;;;1.80;99.90;;;;;;4996926;28;20293;-75
2024/01/07 10:10:14;;;;;;;7.63;5.90;;;1.80;99.90;;;;;;4997156;28;20183;-74
2024/01/07 10:12:40;;;;;;;6.20;5.60;;;1.80;99.90;;;;;;4997531;28;20182;-74
2024/01/07 10:15:06;;;;;;;6.90;6.20;;;1.80;99.90;;;;;;4996863;28;20175;-76
2024/01/07 10:17:31;;;;;;;9.10;6.47;;;1.90;99.90;;;;;;4996963;28;20664;-80
2024/01/07 10:19:57;;;;;;;8.07;6.97;;;1.90;99.90;;;;;;5014613;28;20203;-74
2024/01/07 10:22:23;;;;;;;7.97;6.40;;;1.90;99.90;;;;;;4997468;28;20172;-76
2024/01/07 10:24:51;;;;;;;7.87;6.33;;;2.00;99.90;;;;;;4996877;28;20207;-74
2024/01/07 10:27:17;;;;;;;7.50;6.40;;;2.00;99.90;;;;;;5015057;28;20203;-76
2024/01/07 10:29:49;;;;;;;6.30;5.70;;;2.10;99.90;;;;;;4998004;28;20520;-76
2024/01/07 10:32:15;;;;;;;6.97;5.80;;;2.00;99.90;;;;;;4997596;28;20199;-76
2024/01/07 10:34:44;;;;;;;7.00;5.70;;;2.00;99.90;;;;;;4997077;28;20646;-74
2024/01/07 10:37:11;;;;;;;6.30;5.67;;;2.10;99.90;;;;;;4996646;28;20210;-74
2024/01/07 10:39:36;;;;;;;6.97;5.93;;;2.10;99.90;;;;;;5014120;28;20565;-74
2024/01/07 10:42:02;;;;;;;8.40;7.60;;;2.10;99.90;;;;;;4996502;28;20179;-74
2024/01/07 10:44:30;;;;;;;9.67;7.70;;;2.10;99.90;;;;;;4998198;28;20199;-75
2024/01/07 10:46:59;;;;;;;10.30;8.37;;;2.10;99.90;;;;;;4997291;28;20294;-76
2024/01/07 10:49:27;;;;;;;11.93;8.83;;;2.10;99.90;;;;;;4998359;28;20187;-75
2024/01/07 10:52:05;;;;;;;11.20;8.70;;;2.10;99.90;;;;;;4998494;28;20550;-75
2024/01/07 10:54:33;;;;;;;10.97;9.13;;;2.00;99.90;;;;;;4999436;28;20190;-76
2024/01/07 10:57:14;;;;;;;38.13;24.33;;;2.00;99.90;;;;;;4999072;28;20298;-75
2024/01/07 10:59:45;;;;;;;22.60;14.47;;;2.00;99.90;;;;;;5000245;28;20230;-76
2024/01/07 11:02:13;;;;;;;65.73;37.60;;;2.00;99.90;;;;;;4999105;28;20190;-76
2024/01/07 11:05:04;;;;;;;35.23;20.47;;;1.90;99.90;;;;;;4999061;28;20190;-76
2024/01/07 11:07:38;;;;;;;50.77;27.47;;;1.90;99.90;;;;;;5016743;28;20187;-75
2024/01/07 11:10:31;;;;;;;32.80;18.10;;;1.90;99.90;;;;;;4999064;28;20198;-75
2024/01/07 11:13:00;;;;;;;32.80;21.80;;;1.80;99.90;;;;;;4999443;28;20251;-75
2024/01/07 11:15:48;;;;;;;23.90;18.03;;;1.80;99.90;;;;;;5015083;28;20183;-76
2024/01/07 11:18:20;;;;;;;11.83;9.40;;;1.80;99.90;;;;;;4999252;28;20225;-76
2024/01/07 11:20:50;;;;;;;17.73;13.40;;;1.80;99.90;;;;;;5000048;28;20203;-75
2024/01/07 11:23:39;;;;;;;13.90;12.30;;;1.70;99.90;;;;;;4997191;28;20237;-75
2024/01/07 11:26:06;;;;;;;13.40;11.70;;;1.70;99.90;;;;;;5014375;28;20230;-76
2024/01/07 11:28:52;;;;;;;12.47;10.97;;;1.70;99.90;;;;;;4997012;28;20198;-74
2024/01/07 11:31:20;;;;;;;19.67;15.33;;;1.70;99.90;;;;;;4998428;28;20171;-75
2024/01/07 11:33:47;;;;;;;13.27;11.43;;;1.60;99.90;;;;;;4997806;28;20638;-76
2024/01/07 11:36:16;;;;;;;8.27;7.40;;;1.60;99.90;;;;;;4996900;28;20195;-76
2024/01/07 11:38:48;;;;;;;16.63;15.00;;;1.50;99.90;;;;;;4996575;28;20215;-75
2024/01/07 11:41:15;;;;;;;8.60;7.60;;;1.50;99.90;;;;;;4995975;28;20203;-79
2024/01/07 11:44:00;;;;;;;9.30;6.60;;;1.50;99.90;;;;;;4995740;28;20203;-74
2024/01/07 11:46:32;;;;;;;7.47;5.67;;;1.60;99.90;;;;;;4997097;28;20210;-75
2024/01/07 11:48:59;;;;;;;13.43;10.70;;;1.50;99.90;;;;;;5017871;28;20156;-75
2024/01/07 11:51:30;;;;;;;9.87;8.60;;;1.50;99.90;;;;;;4996716;28;20345;-74
2024/01/07 11:53:56;;;;;;;10.60;8.20;;;1.40;99.90;;;;;;4996362;28;20271;-74
2024/01/07 11:56:22;;;;;;;17.13;12.07;;;1.40;99.90;;;;;;4998057;28;20199;-75
2024/01/07 11:58:47;;;;;;;14.60;9.53;;;1.40;99.90;;;;;;5017923;28;20176;-75
2024/01/07 12:01:16;;;;;;;14.27;11.27;;;1.40;99.90;;;;;;5000394;28;20221;-75
2024/01/07 12:03:43;;;;;;;11.63;9.40;;;1.40;99.90;;;;;;5018647;28;20172;-76
2024/01/07 12:06:13;;;;;;;9.47;8.17;;;1.30;99.90;;;;;;5002027;28;20219;-76
2024/01/07 12:08:43;;;;;;;8.23;7.40;;;1.30;99.90;;;;;;5020520;28;20176;-76
2024/01/07 12:11:11;;;;;;;11.03;9.23;;;1.40;99.90;;;;;;4999609;28;20206;-75
2024/01/07 12:13:37;;;;;;;7.50;6.80;;;1.40;99.90;;;;;;4999362;28;20187;-75
2024/01/07 12:16:04;;;;;;;11.93;7.93;;;1.30;99.90;;;;;;5016400;28;20196;-75
2024/01/07 12:18:30;;;;;;;7.97;6.53;;;1.30;99.90;;;;;;5019217;28;20265;-75
2024/01/07 12:20:59;;;;;;;7.70;6.00;;;1.40;99.90;;;;;;4999047;28;20251;-76
2024/01/07 12:23:26;;;;;;;6.80;5.60;;;1.40;99.90;;;;;;4999511;28;20233;-75
2024/01/07 12:26:06;;;;;;;8.10;7.30;;;1.40;99.90;;;;;;5018456;28;20685;-75
2024/01/07 12:28:32;;;;;;;6.43;5.83;;;1.40;99.90;;;;;;5034215;28;20176;-77
2024/01/07 12:30:58;;;;;;;16.30;14.50;;;1.40;99.90;;;;;;4999955;28;20175;-75
2024/01/07 12:33:25;;;;;;;7.07;6.37;;;1.40;99.90;;;;;;5016521;28;20172;-80
2024/01/07 12:35:51;;;;;;;5.97;4.90;;;1.30;99.90;;;;;;4999384;28;20199;-75
2024/01/07 12:38:26;;;;;;;7.10;5.40;;;1.30;99.90;;;;;;5003937;28;20180;-75
2024/01/07 12:40:55;;;;;;;6.07;5.20;;;1.30;99.90;;;;;;5001985;28;20260;-76
2024/01/07 12:43:20;;;;;;;5.27;4.73;;;1.10;99.90;;;;;;5003936;28;20556;-76
2024/01/07 12:45:47;;;;;;;6.37;4.40;;;1.20;99.90;;;;;;5002721;28;20176;-76
2024/01/07 12:48:13;;;;;;;5.93;4.60;;;1.20;99.90;;;;;;5001089;28;20172;-76
2024/01/07 12:50:38;;;;;;;5.60;4.57;;;1.20;99.90;;;;;;4998744;28;20190;-74
2024/01/07 12:53:05;;;;;;;5.93;5.27;;;1.20;99.90;;;;;;5016410;28;20164;-74
2024/01/07 12:55:31;;;;;;;7.03;5.30;;;1.20;99.90;;;;;;4998813;28;20171;-75
2024/01/07 12:57:58;;;;;;;5.47;4.77;;;1.20;99.90;;;;;;4998720;28;20234;-74
2024/01/07 13:00:25;;;;;;;5.47;4.60;;;1.20;99.90;;;;;;4998829;28;20254;-75
2024/01/07 13:02:51;;;;;;;10.37;5.70;;;1.10;99.90;;;;;;5018314;28;20156;-75
2024/01/07 13:05:17;;;;;;;7.37;5.23;;;1.00;99.90;;;;;;4998848;28;20279;-75
2024/01/07 13:07:42;;;;;;;4.47;4.07;;;1.10;99.90;;;;;;4998264;28;20665;-75
2024/01/07 13:10:09;;;;;;;5.47;4.37;;;1.00;99.90;;;;;;5031428;28;20230;-77
2024/01/07 13:12:35;;;;;;;5.00;4.27;;;1.00;99.90;;;;;;4998025;28;20192;-77
2024/01/07 13:15:01;;;;;;;7.03;5.40;;;1.00;99.90;;;;;;5016443;28;20233;-76